sensor_id;sensor_type;location;lat;lon;timestamp;P1;durP1;ratioP1;P2;durP2;ratioP2
60430;SDS011;46285;45.122;20.726;2023-05-09T00:05:13;13.60;;;5.80;;
60430;SDS011;46285;45.122;20.726;2023-05-09T00:15:14;13.23;;;5.90;;
60430;SDS011;46285;45.122;20.726;2023-05-09T00:25:15;9.82;;;5.13;;
60430;SDS011;46285;45.122;20.726;2023-05-09T00:35:16;9.98;;;5.32;;
60430;SDS011;46285;45.122;20.726;2023-05-09T00:45:18;16.73;;;5.47;;
60430;SDS011;46285;45.122;20.726;2023-05-09T00:55:19;12.65;;;6.43;;
60430;SDS011;46285;45.122;20.726;2023-05-09T01:05:21;9.73;;;5.88;;
60430;SDS011;46285;45.122;20.726;2023-05-09T01:15:23;12.68;;;6.35;;
60430;SDS011;46285;45.122;20.726;2023-05-09T01:35:32;10.32;;;5.40;;
60430;SDS011;46285;45.122;20.726;2023-05-09T01:45:36;13.85;;;5.28;;
60430;SDS011;46285;45.122;20.726;2023-05-09T01:55:38;9.10;;;5.30;;
60430;SDS011;46285;45.122;20.726;2023-05-09T02:05:39;10.60;;;6.25;;
60430;SDS011;46285;45.122;20.726;2023-05-09T02:15:42;11.60;;;7.00;;
60430;SDS011;46285;45.122;20.726;2023-05-09T02:25:43;12.80;;;7.85;;
60430;SDS011;46285;45.122;20.726;2023-05-09T02:35:45;12.60;;;7.38;;
60430;SDS011;46285;45.122;20.726;2023-05-09T02:45:47;16.20;;;8.88;;
60430;SDS011;46285;45.122;20.726;2023-05-09T02:55:48;12.02;;;7.72;;
60430;SDS011;46285;45.122;20.726;2023-05-09T03:05:49;16.52;;;8.65;;
60430;SDS011;46285;45.122;20.726;2023-05-09T03:15:51;12.00;;;7.32;;
60430;SDS011;46285;45.122;20.726;2023-05-09T03:25:52;14.93;;;9.05;;
60430;SDS011;46285;45.122;20.726;2023-05-09T03:35:53;10.95;;;6.78;;
60430;SDS011;46285;45.122;20.726;2023-05-09T03:45:55;12.95;;;6.65;;
60430;SDS011;46285;45.122;20.726;2023-05-09T03:55:58;9.60;;;5.53;;
60430;SDS011;46285;45.122;20.726;2023-05-09T04:06:01;14.93;;;6.72;;
60430;SDS011;46285;45.122;20.726;2023-05-09T04:16:12;10.68;;;5.57;;
60430;SDS011;46285;45.122;20.726;2023-05-09T04:26:13;11.60;;;6.53;;
60430;SDS011;46285;45.122;20.726;2023-05-09T04:36:17;10.00;;;5.28;;
60430;SDS011;46285;45.122;20.726;2023-05-09T04:46:19;11.35;;;5.78;;
60430;SDS011;46285;45.122;20.726;2023-05-09T04:56:21;9.98;;;5.82;;
60430;SDS011;46285;45.122;20.726;2023-05-09T05:06:23;10.60;;;6.13;;
60430;SDS011;46285;45.122;20.726;2023-05-09T05:16:24;10.23;;;6.10;;
60430;SDS011;46285;45.122;20.726;2023-05-09T05:26:26;12.57;;;6.75;;
60430;SDS011;46285;45.122;20.726;2023-05-09T05:36:29;12.48;;;7.47;;
60430;SDS011;46285;45.122;20.726;2023-05-09T05:46:31;12.77;;;6.03;;
60430;SDS011;46285;45.122;20.726;2023-05-09T05:56:33;12.65;;;6.07;;
60430;SDS011;46285;45.122;20.726;2023-05-09T06:06:34;10.20;;;6.15;;
60430;SDS011;46285;45.122;20.726;2023-05-09T06:16:35;16.48;;;5.60;;
60430;SDS011;46285;45.122;20.726;2023-05-09T06:26:37;9.95;;;5.30;;
60430;SDS011;46285;45.122;20.726;2023-05-09T06:36:38;8.05;;;5.00;;
60430;SDS011;46285;45.122;20.726;2023-05-09T06:46:39;10.05;;;5.88;;
60430;SDS011;46285;45.122;20.726;2023-05-09T06:56:41;8.38;;;5.10;;
60430;SDS011;46285;45.122;20.726;2023-05-09T07:06:42;7.63;;;4.57;;
60430;SDS011;46285;45.122;20.726;2023-05-09T07:16:43;7.53;;;4.35;;
60430;SDS011;46285;45.122;20.726;2023-05-09T07:26:45;6.82;;;3.83;;
60430;SDS011;46285;45.122;20.726;2023-05-09T07:36:46;7.88;;;4.20;;
60430;SDS011;46285;45.122;20.726;2023-05-09T07:46:47;10.10;;;4.43;;
60430;SDS011;46285;45.122;20.726;2023-05-09T07:56:48;10.00;;;4.50;;
60430;SDS011;46285;45.122;20.726;2023-05-09T08:06:49;11.43;;;4.57;;
60430;SDS011;46285;45.122;20.726;2023-05-09T08:16:50;7.70;;;4.63;;
60430;SDS011;46285;45.122;20.726;2023-05-09T08:26:51;5.97;;;2.90;;
60430;SDS011;46285;45.122;20.726;2023-05-09T08:36:53;4.60;;;2.00;;
60430;SDS011;46285;45.122;20.726;2023-05-09T08:46:58;7.43;;;1.88;;
60430;SDS011;46285;45.122;20.726;2023-05-09T08:57:00;7.50;;;3.35;;
60430;SDS011;46285;45.122;20.726;2023-05-09T09:07:02;3.13;;;1.52;;
60430;SDS011;46285;45.122;20.726;2023-05-09T09:17:06;4.03;;;1.70;;
60430;SDS011;46285;45.122;20.726;2023-05-09T09:27:08;4.30;;;1.75;;
60430;SDS011;46285;45.122;20.726;2023-05-09T09:37:09;4.18;;;1.83;;
60430;SDS011;46285;45.122;20.726;2023-05-09T09:47:29;4.50;;;1.50;;
60430;SDS011;46285;45.122;20.726;2023-05-09T09:57:34;5.78;;;2.35;;
60430;SDS011;46285;45.122;20.726;2023-05-09T10:07:36;4.00;;;1.60;;
60430;SDS011;46285;45.122;20.726;2023-05-09T10:17:37;5.75;;;1.52;;
60430;SDS011;46285;45.122;20.726;2023-05-09T10:27:40;3.30;;;1.40;;
60430;SDS011;46285;45.122;20.726;2023-05-09T10:37:42;5.82;;;1.20;;
60430;SDS011;46285;45.122;20.726;2023-05-09T10:47:43;5.72;;;1.20;;
60430;SDS011;46285;45.122;20.726;2023-05-09T10:57:45;7.38;;;2.60;;
60430;SDS011;46285;45.122;20.726;2023-05-09T11:08:34;6.72;;;1.75;;
60430;SDS011;46285;45.122;20.726;2023-05-09T11:18:51;4.15;;;1.60;;
60430;SDS011;46285;45.122;20.726;2023-05-09T11:28:52;5.50;;;1.88;;
60430;SDS011;46285;45.122;20.726;2023-05-09T11:39:04;5.60;;;1.63;;
60430;SDS011;46285;45.122;20.726;2023-05-09T11:49:06;4.95;;;1.90;;
60430;SDS011;46285;45.122;20.726;2023-05-09T11:59:07;5.47;;;2.08;;
60430;SDS011;46285;45.122;20.726;2023-05-09T12:09:08;5.10;;;2.00;;
60430;SDS011;46285;45.122;20.726;2023-05-09T12:19:09;3.50;;;1.30;;
60430;SDS011;46285;45.122;20.726;2023-05-09T12:29:10;6.20;;;1.55;;
60430;SDS011;46285;45.122;20.726;2023-05-09T12:39:12;3.80;;;1.42;;
60430;SDS011;46285;45.122;20.726;2023-05-09T12:49:20;3.72;;;1.58;;
60430;SDS011;46285;45.122;20.726;2023-05-09T12:59:25;4.50;;;1.30;;
60430;SDS011;46285;45.122;20.726;2023-05-09T13:09:26;6.38;;;1.70;;
60430;SDS011;46285;45.122;20.726;2023-05-09T13:19:27;4.45;;;1.60;;
60430;SDS011;46285;45.122;20.726;2023-05-09T13:29:28;4.95;;;1.52;;
60430;SDS011;46285;45.122;20.726;2023-05-09T13:39:30;5.28;;;2.00;;
60430;SDS011;46285;45.122;20.726;2023-05-09T13:49:31;5.25;;;2.08;;
60430;SDS011;46285;45.122;20.726;2023-05-09T13:59:32;5.45;;;1.90;;
60430;SDS011;46285;45.122;20.726;2023-05-09T14:09:34;5.20;;;1.83;;
60430;SDS011;46285;45.122;20.726;2023-05-09T14:19:35;5.65;;;1.90;;
60430;SDS011;46285;45.122;20.726;2023-05-09T14:29:36;5.40;;;2.05;;
60430;SDS011;46285;45.122;20.726;2023-05-09T14:39:41;4.80;;;2.17;;
60430;SDS011;46285;45.122;20.726;2023-05-09T14:49:43;5.45;;;2.05;;
60430;SDS011;46285;45.122;20.726;2023-05-09T14:59:44;4.97;;;2.22;;
60430;SDS011;46285;45.122;20.726;2023-05-09T15:09:45;7.28;;;2.03;;
60430;SDS011;46285;45.122;20.726;2023-05-09T15:19:47;8.90;;;2.50;;
60430;SDS011;46285;45.122;20.726;2023-05-09T15:29:48;4.25;;;1.40;;
60430;SDS011;46285;45.122;20.726;2023-05-09T15:39:49;3.25;;;1.15;;
60430;SDS011;46285;45.122;20.726;2023-05-09T15:49:50;6.43;;;1.77;;
60430;SDS011;46285;45.122;20.726;2023-05-09T15:59:51;5.20;;;1.65;;
60430;SDS011;46285;45.122;20.726;2023-05-09T16:09:52;10.30;;;4.43;;
60430;SDS011;46285;45.122;20.726;2023-05-09T16:19:54;10.45;;;5.35;;
60430;SDS011;46285;45.122;20.726;2023-05-09T16:29:55;14.90;;;8.85;;
60430;SDS011;46285;45.122;20.726;2023-05-09T16:39:56;14.55;;;7.32;;
60430;SDS011;46285;45.122;20.726;2023-05-09T16:49:58;15.60;;;7.30;;
60430;SDS011;46285;45.122;20.726;2023-05-09T16:59:59;7.15;;;4.05;;
60430;SDS011;46285;45.122;20.726;2023-05-09T17:10:00;7.63;;;4.72;;
60430;SDS011;46285;45.122;20.726;2023-05-09T17:20:01;16.33;;;11.15;;
60430;SDS011;46285;45.122;20.726;2023-05-09T17:30:03;10.57;;;4.75;;
60430;SDS011;46285;45.122;20.726;2023-05-09T17:40:04;9.07;;;4.35;;
60430;SDS011;46285;45.122;20.726;2023-05-09T17:50:06;8.65;;;4.38;;
60430;SDS011;46285;45.122;20.726;2023-05-09T18:00:07;8.82;;;4.40;;
60430;SDS011;46285;45.122;20.726;2023-05-09T18:10:14;23.98;;;17.85;;
60430;SDS011;46285;45.122;20.726;2023-05-09T18:20:15;17.83;;;8.40;;
60430;SDS011;46285;45.122;20.726;2023-05-09T18:30:17;11.40;;;7.78;;
60430;SDS011;46285;45.122;20.726;2023-05-09T18:40:18;33.63;;;19.15;;
60430;SDS011;46285;45.122;20.726;2023-05-09T18:50:20;14.23;;;7.22;;
60430;SDS011;46285;45.122;20.726;2023-05-09T19:00:21;14.85;;;7.40;;
60430;SDS011;46285;45.122;20.726;2023-05-09T19:10:22;12.77;;;7.70;;
60430;SDS011;46285;45.122;20.726;2023-05-09T19:20:23;13.48;;;7.60;;
60430;SDS011;46285;45.122;20.726;2023-05-09T19:30:25;16.73;;;9.82;;
60430;SDS011;46285;45.122;20.726;2023-05-09T19:40:26;10.75;;;7.00;;
60430;SDS011;46285;45.122;20.726;2023-05-09T19:50:27;18.65;;;12.20;;
60430;SDS011;46285;45.122;20.726;2023-05-09T20:00:28;15.68;;;9.57;;
60430;SDS011;46285;45.122;20.726;2023-05-09T20:10:30;10.65;;;7.32;;
60430;SDS011;46285;45.122;20.726;2023-05-09T20:20:32;8.52;;;5.43;;
60430;SDS011;46285;45.122;20.726;2023-05-09T20:30:33;10.10;;;6.32;;
60430;SDS011;46285;45.122;20.726;2023-05-09T20:40:34;10.65;;;7.45;;
60430;SDS011;46285;45.122;20.726;2023-05-09T20:50:35;9.23;;;6.07;;
60430;SDS011;46285;45.122;20.726;2023-05-09T21:00:37;12.57;;;6.60;;
60430;SDS011;46285;45.122;20.726;2023-05-09T21:10:38;11.75;;;6.72;;
60430;SDS011;46285;45.122;20.726;2023-05-09T21:20:39;8.55;;;6.15;;
60430;SDS011;46285;45.122;20.726;2023-05-09T21:30:40;11.18;;;6.05;;
60430;SDS011;46285;45.122;20.726;2023-05-09T21:40:41;9.07;;;5.88;;
60430;SDS011;46285;45.122;20.726;2023-05-09T21:50:43;10.50;;;6.03;;
60430;SDS011;46285;45.122;20.726;2023-05-09T22:00:44;9.07;;;6.22;;
60430;SDS011;46285;45.122;20.726;2023-05-09T22:10:45;10.82;;;6.50;;
60430;SDS011;46285;45.122;20.726;2023-05-09T22:20:46;9.63;;;5.93;;
60430;SDS011;46285;45.122;20.726;2023-05-09T22:30:47;11.13;;;6.53;;
60430;SDS011;46285;45.122;20.726;2023-05-09T22:40:48;9.75;;;6.50;;
60430;SDS011;46285;45.122;20.726;2023-05-09T22:50:50;10.95;;;6.20;;
60430;SDS011;46285;45.122;20.726;2023-05-09T23:00:51;8.93;;;6.25;;
60430;SDS011;46285;45.122;20.726;2023-05-09T23:10:52;12.40;;;7.05;;
60430;SDS011;46285;45.122;20.726;2023-05-09T23:20:53;9.52;;;6.45;;
60430;SDS011;46285;45.122;20.726;2023-05-09T23:30:54;10.55;;;7.10;;
60430;SDS011;46285;45.122;20.726;2023-05-09T23:40:55;14.00;;;7.45;;
60430;SDS011;46285;45.122;20.726;2023-05-09T23:50:56;9.63;;;7.22;;
